createdAt,value
2018-06-24T00:00:12.235Z,0.60
2018-06-24T00:02:40.490Z,0.70
2018-06-24T00:05:09.465Z,0.60
2018-06-24T00:07:38.502Z,0.60
2018-06-24T00:10:06.691Z,0.60
2018-06-24T00:12:34.907Z,0.70
2018-06-24T00:15:03.893Z,0.60
2018-06-24T00:17:32.116Z,0.60
2018-06-24T00:20:00.328Z,0.60
2018-06-24T00:22:28.595Z,0.63
2018-06-24T00:24:56.802Z,0.70
2018-06-24T00:27:25.023Z,0.60
2018-06-24T00:29:53.254Z,0.60
2018-06-24T00:32:21.453Z,0.60
2018-06-24T00:34:49.713Z,0.60
2018-06-24T00:37:18.781Z,0.60
2018-06-24T00:39:46.957Z,0.60
2018-06-24T00:42:15.185Z,0.60
2018-06-24T00:44:43.444Z,0.60
2018-06-24T00:47:12.419Z,0.60
2018-06-24T00:49:40.688Z,0.60
2018-06-24T00:52:08.891Z,0.60
2018-06-24T00:54:37.863Z,0.60
2018-06-24T00:57:06.121Z,0.60
2018-06-24T00:59:55.246Z,0.70
2018-06-24T01:02:23.450Z,0.60
2018-06-24T01:04:51.658Z,0.60
2018-06-24T01:07:19.936Z,0.60
2018-06-24T01:09:48.131Z,0.70
2018-06-24T01:12:17.146Z,0.60
2018-06-24T01:14:45.394Z,0.60
2018-06-24T01:17:13.680Z,0.60
2018-06-24T01:19:42.652Z,0.60
2018-06-24T01:22:10.885Z,0.60
2018-06-24T01:24:39.102Z,0.60
2018-06-24T01:27:07.326Z,0.60
2018-06-24T01:29:35.572Z,0.60
2018-06-24T01:32:04.554Z,0.60
2018-06-24T01:34:32.772Z,0.60
2018-06-24T01:37:00.994Z,0.60
2018-06-24T01:39:29.243Z,0.60
2018-06-24T01:41:57.466Z,0.60
2018-06-24T01:44:26.441Z,0.60
2018-06-24T01:46:54.664Z,0.60
2018-06-24T01:49:22.874Z,0.60
2018-06-24T01:51:51.130Z,0.60
2018-06-24T01:54:20.082Z,0.60
2018-06-24T01:56:49.058Z,0.60
2018-06-24T01:59:17.264Z,0.60
2018-06-24T02:01:46.282Z,0.60
2018-06-24T02:04:14.532Z,0.60
2018-06-24T02:06:43.552Z,0.60
2018-06-24T02:09:11.796Z,0.60
2018-06-24T02:11:40.766Z,0.60
2018-06-24T02:14:08.993Z,0.70
2018-06-24T02:16:37.210Z,0.60
2018-06-24T02:19:05.412Z,0.60
2018-06-24T02:21:34.442Z,0.60
2018-06-24T02:24:02.648Z,0.60
2018-06-24T02:26:30.878Z,0.70
2018-06-24T02:28:59.129Z,0.60
2018-06-24T02:31:27.345Z,0.60
2018-06-24T02:33:55.598Z,0.60
2018-06-24T02:36:24.593Z,0.60
2018-06-24T02:38:53.598Z,0.60
2018-06-24T02:41:22.572Z,0.60
2018-06-24T02:43:51.541Z,0.60
2018-06-24T02:46:19.798Z,0.60
2018-06-24T02:48:47.999Z,0.60
2018-06-24T02:51:16.220Z,0.60
2018-06-24T02:53:44.535Z,0.60
2018-06-24T02:56:13.459Z,0.60
2018-06-24T02:58:42.473Z,0.70
2018-06-24T03:01:11.496Z,0.60
2018-06-24T03:03:39.735Z,0.60
2018-06-24T03:06:08.693Z,0.60
2018-06-24T03:08:36.911Z,0.60
2018-06-24T03:11:05.163Z,0.60
2018-06-24T03:13:33.384Z,0.60
2018-06-24T03:16:01.601Z,0.60
2018-06-24T03:18:29.867Z,0.60
2018-06-24T03:20:58.110Z,0.60
2018-06-24T03:23:26.336Z,0.60
2018-06-24T03:25:54.557Z,0.60
2018-06-24T03:28:22.819Z,0.60
2018-06-24T03:30:51.799Z,0.60
2018-06-24T03:33:20.021Z,0.60
2018-06-24T03:35:48.235Z,0.60
2018-06-24T03:38:16.444Z,0.60
2018-06-24T03:40:44.652Z,0.60
2018-06-24T03:43:12.930Z,0.60
2018-06-24T03:45:41.123Z,0.50
2018-06-24T03:48:09.345Z,0.50
2018-06-24T03:50:38.320Z,0.60
2018-06-24T03:53:06.669Z,0.60
2018-06-24T03:55:34.892Z,0.63
2018-06-24T03:58:03.902Z,0.60
2018-06-24T04:00:32.063Z,0.60
2018-06-24T04:03:01.051Z,0.60
2018-06-24T04:05:30.043Z,0.60
2018-06-24T04:07:59.028Z,0.60
2018-06-24T04:10:28.057Z,0.60
2018-06-24T04:12:56.304Z,0.60
2018-06-24T04:15:25.332Z,0.60
2018-06-24T04:17:53.586Z,0.60
2018-06-24T04:20:22.612Z,0.60
2018-06-24T04:22:50.862Z,0.60
2018-06-24T04:25:19.878Z,0.70
2018-06-24T04:27:48.124Z,0.60
2018-06-24T04:30:17.092Z,0.60
2018-06-24T04:32:45.360Z,0.60
2018-06-24T04:35:13.594Z,0.60
2018-06-24T04:37:41.842Z,0.60
2018-06-24T04:40:10.864Z,0.60
2018-06-24T04:42:39.110Z,0.50
2018-06-24T04:45:07.354Z,0.60
2018-06-24T04:47:35.614Z,0.60
2018-06-24T04:50:03.819Z,0.60
2018-06-24T04:52:32.039Z,0.60
2018-06-24T04:55:00.241Z,0.50
2018-06-24T04:57:28.510Z,0.67
2018-06-24T04:59:56.717Z,0.60
2018-06-24T05:02:24.937Z,0.60
2018-06-24T05:04:53.192Z,0.60
2018-06-24T05:07:21.462Z,0.60
2018-06-24T05:09:49.663Z,0.60
2018-06-24T05:12:18.652Z,0.60
2018-06-24T05:14:47.664Z,0.60
2018-06-24T05:17:15.922Z,0.60
2018-06-24T05:19:44.890Z,0.60
2018-06-24T05:22:13.158Z,0.60
2018-06-24T05:24:41.401Z,0.60
2018-06-24T05:27:09.631Z,0.60
2018-06-24T05:29:37.836Z,0.60
2018-06-24T05:32:06.116Z,0.50
2018-06-24T05:34:34.323Z,0.60
2018-06-24T05:37:02.551Z,0.60
2018-06-24T05:39:31.540Z,0.60
2018-06-24T05:42:00.526Z,0.60
2018-06-24T05:44:29.540Z,0.60
2018-06-24T05:46:58.576Z,0.60
2018-06-24T05:49:26.836Z,0.60
2018-06-24T05:51:55.038Z,0.60
2018-06-24T05:54:23.314Z,0.60
2018-06-24T05:56:51.554Z,0.60
2018-06-24T05:59:19.775Z,0.60
2018-06-24T06:01:48.034Z,0.60
2018-06-24T06:04:16.233Z,0.60
2018-06-24T06:06:44.452Z,0.60
2018-06-24T06:09:12.658Z,0.60
2018-06-24T06:11:40.896Z,0.60
2018-06-24T06:14:09.905Z,0.60
2018-06-24T06:16:38.121Z,0.60
2018-06-24T06:19:06.339Z,0.60
2018-06-24T06:21:34.580Z,0.60
2018-06-24T06:24:02.783Z,0.60
2018-06-24T06:26:31.777Z,0.60
2018-06-24T06:29:00.795Z,0.60
2018-06-24T06:31:29.051Z,0.60
2018-06-24T06:33:58.068Z,0.50
2018-06-24T06:36:26.336Z,0.60
2018-06-24T06:38:55.319Z,0.60
2018-06-24T06:41:24.295Z,0.60
2018-06-24T06:43:52.554Z,0.60
2018-06-24T06:46:20.790Z,0.60
2018-06-24T06:48:49.045Z,0.60
2018-06-24T06:51:18.065Z,0.60
2018-06-24T06:53:46.323Z,0.60
2018-06-24T06:56:15.335Z,0.53
2018-06-24T06:58:43.565Z,0.60
2018-06-24T07:01:11.842Z,0.60
2018-06-24T07:03:40.057Z,0.60
2018-06-24T07:06:08.661Z,0.60
2018-06-24T07:08:36.942Z,0.60
2018-06-24T07:11:05.135Z,0.60
2018-06-24T07:13:33.441Z,0.60
2018-06-24T07:16:01.624Z,0.60
2018-06-24T07:18:30.609Z,0.60
2018-06-24T07:20:59.617Z,0.60
2018-06-24T07:23:28.672Z,0.60
2018-06-24T07:25:56.987Z,0.53
2018-06-24T07:28:25.180Z,0.60
2018-06-24T07:30:53.435Z,0.60
2018-06-24T07:33:22.446Z,0.60
2018-06-24T07:35:51.463Z,0.60
2018-06-24T07:38:19.700Z,0.60
2018-06-24T07:40:48.693Z,0.60
2018-06-24T07:43:17.685Z,0.53
2018-06-24T07:45:46.669Z,0.60
2018-06-24T07:48:16.202Z,0.60
2018-06-24T07:50:44.606Z,0.50
2018-06-24T07:53:12.862Z,0.60
2018-06-24T07:55:41.069Z,0.60
2018-06-24T07:58:09.327Z,0.50
2018-06-24T08:00:37.543Z,0.60
2018-06-24T08:03:05.764Z,0.60
2018-06-24T08:05:34.020Z,0.57
2018-06-24T08:08:02.286Z,0.60
2018-06-24T08:10:30.480Z,0.60
2018-06-24T08:12:59.471Z,0.60
2018-06-24T08:15:28.483Z,0.60
2018-06-24T08:17:56.753Z,0.60
2018-06-24T08:20:25.768Z,0.60
2018-06-24T08:22:54.026Z,0.60
2018-06-24T08:25:22.253Z,0.50
2018-06-24T08:27:50.493Z,0.60
2018-06-24T08:30:18.747Z,0.50
2018-06-24T08:32:46.960Z,0.60
2018-06-24T08:35:15.212Z,0.60
2018-06-24T08:37:43.480Z,0.60
2018-06-24T08:40:12.486Z,0.60
2018-06-24T08:42:41.468Z,0.50
2018-06-24T08:45:09.737Z,0.50
2018-06-24T08:47:37.941Z,0.60
2018-06-24T08:50:06.159Z,0.60
2018-06-24T08:52:34.442Z,0.60
2018-06-24T08:55:02.642Z,0.60
2018-06-24T08:57:31.678Z,0.60
2018-06-24T08:59:59.929Z,0.60
2018-06-24T09:02:28.950Z,0.50
2018-06-24T09:04:57.169Z,0.60
2018-06-24T09:07:25.435Z,0.50
2018-06-24T09:09:53.674Z,0.50
2018-06-24T09:12:21.900Z,0.50
2018-06-24T09:14:50.129Z,0.47
2018-06-24T09:17:18.384Z,0.60
2018-06-24T09:19:47.346Z,0.50
2018-06-24T09:22:15.589Z,0.50
2018-06-24T09:24:43.842Z,0.57
2018-06-24T09:27:12.095Z,0.50
2018-06-24T09:29:41.103Z,0.57
2018-06-24T09:32:10.102Z,0.60
2018-06-24T09:34:38.318Z,0.60
2018-06-24T09:37:06.549Z,0.60
2018-06-24T09:39:34.761Z,0.60
2018-06-24T09:42:03.034Z,0.57
2018-06-24T09:44:31.288Z,0.60
2018-06-24T09:46:59.543Z,0.50
2018-06-24T09:49:28.573Z,0.60
2018-06-24T09:51:56.812Z,0.60
2018-06-24T09:54:25.837Z,0.57
2018-06-24T09:56:54.040Z,0.60
2018-06-24T09:59:22.272Z,0.50
2018-06-24T10:01:50.540Z,0.60
2018-06-24T10:04:19.562Z,0.50
2018-06-24T10:06:47.801Z,0.50
2018-06-24T10:09:16.842Z,0.50
2018-06-24T10:11:45.054Z,0.60
2018-06-24T10:14:13.321Z,0.53
2018-06-24T10:16:41.516Z,0.50
2018-06-24T10:19:09.785Z,0.50
2018-06-24T10:21:37.985Z,0.50
2018-06-24T10:24:06.979Z,0.60
2018-06-24T10:26:36.000Z,0.50
2018-06-24T10:29:04.202Z,0.50
2018-06-24T10:31:32.531Z,0.50
2018-06-24T10:34:01.530Z,0.60
2018-06-24T10:36:30.510Z,0.60
2018-06-24T10:38:59.506Z,0.60
2018-06-24T10:41:27.715Z,0.50
2018-06-24T10:43:55.950Z,0.50
2018-06-24T10:46:24.262Z,0.50
2018-06-24T10:48:53.301Z,0.60
2018-06-24T10:51:21.543Z,0.40
2018-06-24T10:53:49.808Z,0.50
2018-06-24T10:56:18.062Z,0.50
2018-06-24T10:58:47.076Z,0.50
2018-06-24T11:01:15.332Z,0.50
2018-06-24T11:03:44.319Z,0.50
2018-06-24T11:06:13.298Z,0.50
2018-06-24T11:08:41.578Z,0.50
2018-06-24T11:11:09.768Z,0.50
2018-06-24T11:13:38.798Z,0.50
2018-06-24T11:16:07.000Z,0.50
2018-06-24T11:18:35.259Z,0.50
2018-06-24T11:21:03.466Z,0.50
2018-06-24T11:23:31.747Z,0.40
2018-06-24T11:25:59.972Z,0.50
2018-06-24T11:28:28.213Z,0.50
2018-06-24T11:30:56.511Z,0.50
2018-06-24T11:33:24.687Z,0.50
2018-06-24T11:35:52.952Z,0.50
2018-06-24T11:38:21.990Z,0.50
2018-06-24T11:40:50.250Z,0.50
2018-06-24T11:43:18.504Z,0.60
2018-06-24T11:45:47.526Z,0.60
2018-06-24T11:48:15.771Z,0.50
2018-06-24T11:50:44.792Z,0.40
2018-06-24T11:53:13.055Z,0.40
2018-06-24T11:55:42.050Z,0.47
2018-06-24T11:58:10.325Z,0.40
2018-06-24T12:00:39.324Z,0.50
2018-06-24T12:03:08.306Z,0.60
2018-06-24T12:05:37.312Z,0.40
2018-06-24T12:08:05.540Z,0.47
2018-06-24T12:10:33.751Z,0.50
2018-06-24T12:13:02.744Z,0.50
2018-06-24T12:15:31.751Z,0.50
2018-06-24T12:18:00.792Z,0.60
2018-06-24T12:20:29.047Z,0.50
2018-06-24T12:22:57.254Z,0.50
2018-06-24T12:25:25.543Z,0.40
2018-06-24T12:27:53.806Z,0.50
2018-06-24T12:30:22.016Z,0.47
2018-06-24T12:32:51.017Z,0.40
2018-06-24T12:35:20.046Z,0.50
2018-06-24T12:37:48.307Z,0.40
2018-06-24T12:40:16.562Z,0.40
2018-06-24T12:42:44.767Z,0.50
2018-06-24T12:45:12.976Z,0.50
2018-06-24T12:47:41.254Z,0.50
2018-06-24T12:50:09.500Z,0.50
2018-06-24T12:52:37.737Z,0.50
2018-06-24T12:55:06.763Z,0.50
2018-06-24T12:57:35.004Z,0.40
2018-06-24T13:00:04.456Z,0.50
2018-06-24T13:02:32.253Z,0.50
2018-06-24T13:05:01.239Z,0.40
2018-06-24T13:07:29.451Z,0.40
2018-06-24T13:09:58.444Z,0.37
2018-06-24T13:12:27.436Z,0.40
2018-06-24T13:14:55.705Z,0.40
2018-06-24T13:17:23.931Z,0.40
2018-06-24T13:19:52.180Z,0.40
2018-06-24T13:22:21.197Z,0.50
2018-06-24T13:24:49.483Z,0.40
2018-06-24T13:27:17.729Z,0.50
2018-06-24T13:29:46.717Z,0.40
2018-06-24T13:32:15.736Z,0.40
2018-06-24T13:34:43.997Z,0.40
2018-06-24T13:37:12.224Z,0.40
2018-06-24T13:39:40.453Z,0.40
2018-06-24T13:42:08.706Z,0.40
2018-06-24T13:44:37.711Z,0.40
2018-06-24T13:47:06.693Z,0.50
2018-06-24T13:49:35.780Z,0.60
2018-06-24T13:52:04.027Z,0.50
2018-06-24T13:54:32.237Z,0.50
2018-06-24T13:57:00.466Z,0.40
2018-06-24T13:59:28.696Z,0.50
2018-06-24T14:01:57.741Z,0.50
2018-06-24T14:04:25.988Z,0.50
2018-06-24T14:06:54.191Z,0.50
2018-06-24T14:09:22.424Z,0.40
2018-06-24T14:11:51.416Z,0.50
2018-06-24T14:14:20.412Z,0.50
2018-06-24T14:16:49.427Z,0.50
2018-06-24T14:19:17.656Z,0.40
2018-06-24T14:21:45.878Z,0.40
2018-06-24T14:24:14.106Z,0.40
2018-06-24T14:26:42.322Z,0.50
2018-06-24T14:29:10.557Z,0.47
2018-06-24T14:31:38.825Z,0.50
2018-06-24T14:34:07.076Z,0.40
2018-06-24T14:36:35.325Z,0.40
2018-06-24T14:39:04.347Z,0.50
2018-06-24T14:41:33.294Z,0.50
2018-06-24T14:44:01.536Z,0.40
2018-06-24T14:46:29.775Z,0.50
2018-06-24T14:48:58.742Z,0.50
2018-06-24T14:51:27.789Z,0.50
2018-06-24T14:53:56.008Z,0.50
2018-06-24T14:56:25.044Z,0.50
2018-06-24T14:58:53.306Z,0.50
2018-06-24T15:01:22.329Z,0.50
2018-06-24T15:03:51.271Z,0.50
2018-06-24T15:06:20.263Z,0.40
2018-06-24T15:08:48.495Z,0.47
2018-06-24T15:11:16.731Z,0.50
2018-06-24T15:13:45.719Z,0.50
2018-06-24T15:16:14.764Z,0.50
2018-06-24T15:18:42.965Z,0.50
2018-06-24T15:21:11.235Z,0.50
2018-06-24T15:23:39.510Z,0.40
2018-06-24T15:26:07.776Z,0.50
2018-06-24T15:28:36.010Z,0.50
2018-06-24T15:31:04.998Z,0.50
2018-06-24T15:33:33.263Z,0.40
2018-06-24T15:36:02.330Z,0.50
2018-06-24T15:38:30.549Z,0.40
2018-06-24T15:40:59.579Z,0.40
2018-06-24T15:43:27.808Z,0.50
2018-06-24T15:45:56.837Z,0.50
2018-06-24T15:48:25.111Z,0.40
2018-06-24T15:50:53.323Z,0.40
2018-06-24T15:53:21.609Z,0.50
2018-06-24T15:55:49.807Z,0.50
2018-06-24T15:58:18.857Z,0.50
2018-06-24T16:00:47.114Z,0.40
2018-06-24T16:03:15.397Z,0.50
2018-06-24T16:05:43.586Z,0.50
2018-06-24T16:08:11.841Z,0.40
2018-06-24T16:10:40.057Z,0.50
2018-06-24T16:13:08.325Z,0.50
2018-06-24T16:15:36.589Z,0.50
2018-06-24T16:18:04.865Z,0.43
2018-06-24T16:20:33.155Z,0.50
2018-06-24T16:23:02.095Z,0.50
2018-06-24T16:25:31.128Z,0.50
2018-06-24T16:27:59.386Z,0.50
2018-06-24T16:30:27.643Z,0.50
2018-06-24T16:32:56.669Z,0.50
2018-06-24T16:35:24.898Z,0.53
2018-06-24T16:37:53.195Z,0.40
2018-06-24T16:40:22.200Z,0.40
2018-06-24T16:42:50.409Z,0.50
2018-06-24T16:45:18.679Z,0.50
2018-06-24T16:47:46.936Z,0.40
2018-06-24T16:50:15.157Z,0.47
2018-06-24T16:52:43.411Z,0.40
2018-06-24T16:55:11.678Z,0.50
2018-06-24T16:57:39.936Z,0.50
2018-06-24T17:00:08.921Z,0.50
2018-06-24T17:02:37.914Z,0.47
2018-06-24T17:05:06.907Z,0.50
2018-06-24T17:07:35.185Z,0.40
2018-06-24T17:10:04.177Z,0.40
2018-06-24T17:12:33.205Z,0.60
2018-06-24T17:15:01.420Z,0.50
2018-06-24T17:17:29.641Z,0.40
2018-06-24T17:19:57.995Z,0.50
2018-06-24T17:22:26.205Z,0.40
2018-06-24T17:24:54.468Z,0.50
2018-06-24T17:27:22.713Z,0.50
2018-06-24T17:29:50.964Z,0.40
2018-06-24T17:32:19.221Z,0.50
2018-06-24T17:34:47.447Z,0.50
2018-06-24T17:37:16.433Z,0.50
2018-06-24T17:39:44.664Z,0.47
2018-06-24T17:42:12.942Z,0.50
2018-06-24T17:44:41.188Z,0.50
2018-06-24T17:47:10.200Z,0.50
2018-06-24T17:49:38.499Z,0.50
2018-06-24T17:52:06.725Z,0.60
2018-06-24T17:54:34.966Z,0.50
2018-06-24T17:57:03.232Z,0.57
2018-06-24T17:59:31.483Z,0.50
2018-06-24T18:01:59.750Z,0.50
2018-06-24T18:04:28.765Z,0.50
2018-06-24T18:06:57.010Z,0.50
2018-06-24T18:09:26.029Z,0.50
2018-06-24T18:11:54.264Z,0.50
2018-06-24T18:14:22.532Z,0.50
2018-06-24T18:16:50.754Z,0.43
2018-06-24T18:19:18.976Z,0.50
2018-06-24T18:21:47.199Z,0.60
2018-06-24T18:24:15.481Z,0.50
2018-06-24T18:26:44.466Z,0.50
2018-06-24T18:29:12.727Z,0.50
2018-06-24T18:31:40.966Z,0.50
2018-06-24T18:34:09.231Z,0.60
2018-06-24T18:36:37.492Z,0.43
2018-06-24T18:39:05.689Z,0.50
2018-06-24T18:41:33.974Z,0.60
2018-06-24T18:44:02.223Z,0.60
2018-06-24T18:46:30.443Z,0.50
2018-06-24T18:48:58.699Z,0.53
2018-06-24T18:51:26.975Z,0.50
2018-06-24T18:53:55.964Z,0.50
2018-06-24T18:56:24.184Z,0.50
2018-06-24T18:58:53.225Z,0.40
2018-06-24T19:01:21.502Z,0.50
2018-06-24T19:03:49.722Z,0.60
2018-06-24T19:06:17.967Z,0.50
2018-06-24T19:08:46.233Z,0.60
2018-06-24T19:11:14.492Z,0.50
2018-06-24T19:13:42.752Z,0.50
2018-06-24T19:16:11.000Z,0.50
2018-06-24T19:18:39.263Z,0.60
2018-06-24T19:21:07.522Z,0.50
2018-06-24T19:23:35.791Z,0.60
2018-06-24T19:26:04.042Z,0.50
2018-06-24T19:28:33.054Z,0.50
2018-06-24T19:31:01.286Z,0.53
2018-06-24T19:33:30.332Z,0.50
2018-06-24T19:35:58.538Z,0.60
2018-06-24T19:38:26.745Z,0.50
2018-06-24T19:40:55.767Z,0.50
2018-06-24T19:43:24.031Z,0.60
2018-06-24T19:45:53.011Z,0.50
2018-06-24T19:48:22.000Z,0.50
2018-06-24T19:50:51.035Z,0.50
2018-06-24T19:53:19.257Z,0.50
2018-06-24T19:55:47.512Z,0.60
2018-06-24T19:58:15.777Z,0.60
2018-06-24T20:00:43.991Z,0.50
2018-06-24T20:03:12.304Z,0.50
2018-06-24T20:05:41.250Z,0.50
2018-06-24T20:08:09.539Z,0.50
2018-06-24T20:10:37.775Z,0.50
2018-06-24T20:13:06.047Z,0.50
2018-06-24T20:15:34.308Z,0.57
2018-06-24T20:18:02.587Z,0.60
2018-06-24T20:20:30.834Z,0.50
2018-06-24T20:22:59.094Z,0.50
2018-06-24T20:25:27.315Z,0.53
2018-06-24T20:27:55.564Z,0.47
2018-06-24T20:30:24.547Z,0.50
2018-06-24T20:32:53.538Z,0.43
2018-06-24T20:35:21.752Z,0.60
2018-06-24T20:37:50.016Z,0.50
2018-06-24T20:40:18.977Z,0.60
2018-06-24T20:42:47.191Z,0.60
2018-06-24T20:45:15.406Z,0.57
2018-06-24T20:47:43.653Z,0.60
2018-06-24T20:50:11.901Z,0.60
2018-06-24T20:52:40.108Z,0.50
2018-06-24T20:55:08.360Z,0.57
2018-06-24T20:57:37.402Z,0.60
2018-06-24T21:00:05.611Z,0.50
2018-06-24T21:02:33.889Z,0.60
2018-06-24T21:05:02.088Z,0.60
2018-06-24T21:07:31.115Z,0.60
2018-06-24T21:09:59.360Z,0.50
2018-06-24T21:12:28.341Z,0.50
2018-06-24T21:14:57.359Z,0.50
2018-06-24T21:17:25.584Z,0.50
2018-06-24T21:19:53.837Z,0.60
2018-06-24T21:22:22.062Z,0.60
2018-06-24T21:24:51.075Z,0.60
2018-06-24T21:27:20.112Z,0.60
2018-06-24T21:29:48.348Z,0.60
2018-06-24T21:32:16.570Z,0.60
2018-06-24T21:34:44.793Z,0.60
2018-06-24T21:37:13.822Z,0.60
2018-06-24T21:39:42.079Z,0.60
2018-06-24T21:42:10.285Z,0.60
2018-06-24T21:44:38.509Z,0.60
2018-06-24T21:47:07.487Z,0.60
2018-06-24T21:49:36.510Z,0.50
2018-06-24T21:52:04.719Z,0.50
2018-06-24T21:54:32.976Z,0.50
2018-06-24T21:57:01.240Z,0.60
2018-06-24T21:59:30.228Z,0.50
2018-06-24T22:01:59.235Z,0.47
2018-06-24T22:04:27.426Z,0.60
2018-06-24T22:06:55.655Z,0.60
2018-06-24T22:09:23.919Z,0.60
2018-06-24T22:11:52.137Z,0.60
2018-06-24T22:14:20.368Z,0.50
2018-06-24T22:16:48.578Z,0.50
2018-06-24T22:19:17.547Z,0.60
2018-06-24T22:21:45.867Z,0.60
2018-06-24T22:24:14.025Z,0.50
2018-06-24T22:26:42.280Z,0.50
2018-06-24T22:29:10.534Z,0.50
2018-06-24T22:31:39.587Z,0.53
2018-06-24T22:34:07.835Z,0.60
2018-06-24T22:36:36.137Z,0.50
2018-06-24T22:39:04.345Z,0.50
2018-06-24T22:41:32.562Z,0.50
2018-06-24T22:44:01.570Z,0.60
2018-06-24T22:46:30.579Z,0.60
2018-06-24T22:48:58.825Z,0.60
2018-06-24T22:51:27.077Z,0.60
2018-06-24T22:53:55.293Z,0.50
2018-06-24T22:56:23.510Z,0.60
2018-06-24T22:58:51.723Z,0.57
2018-06-24T23:01:20.766Z,0.60
2018-06-24T23:03:48.971Z,0.50
2018-06-24T23:06:17.224Z,0.60
2018-06-24T23:08:45.425Z,0.60
2018-06-24T23:11:13.675Z,0.60
2018-06-24T23:13:41.940Z,0.60
2018-06-24T23:16:10.159Z,0.60
2018-06-24T23:18:38.422Z,0.60
2018-06-24T23:21:06.631Z,0.50
2018-06-24T23:23:34.850Z,0.60
2018-06-24T23:26:03.115Z,0.60
2018-06-24T23:28:31.350Z,0.60
2018-06-24T23:30:59.539Z,0.50
2018-06-24T23:33:28.594Z,0.50
2018-06-24T23:35:56.832Z,0.60
2018-06-24T23:38:25.100Z,0.60
2018-06-24T23:40:54.072Z,0.50
2018-06-24T23:43:22.315Z,0.60
2018-06-24T23:45:50.520Z,0.60
2018-06-24T23:48:18.775Z,0.60
2018-06-24T23:50:47.029Z,0.53
2018-06-24T23:53:15.276Z,0.53
2018-06-24T23:55:44.282Z,0.60
2018-06-24T23:58:13.314Z,0.50
